createdAt,value
2018-09-19T00:00:26.596Z,3.13
2018-09-19T00:02:55.023Z,3.33
2018-09-19T00:05:24.246Z,4.00
2018-09-19T00:07:53.538Z,3.33
2018-09-19T00:10:23.713Z,3.10
2018-09-19T00:12:53.167Z,3.43
2018-09-19T00:15:22.162Z,3.40
2018-09-19T00:17:51.219Z,3.50
2018-09-19T00:20:20.981Z,3.87
2018-09-19T00:22:49.696Z,3.93
2018-09-19T00:25:19.044Z,3.90
2018-09-19T00:27:48.498Z,3.17
2018-09-19T00:30:17.234Z,3.23
2018-09-19T00:32:46.163Z,3.90
2018-09-19T00:35:17.019Z,3.87
2018-09-19T00:37:46.104Z,3.63
2018-09-19T00:40:15.645Z,4.43
2018-09-19T00:42:44.446Z,3.93
2018-09-19T00:45:14.157Z,3.93
2018-09-19T00:47:43.878Z,4.33
2018-09-19T00:50:12.329Z,3.40
2018-09-19T00:52:41.716Z,4.13
2018-09-19T00:55:10.895Z,4.10
2018-09-19T00:57:39.699Z,4.20
2018-09-19T01:00:09.404Z,3.90
2018-09-19T01:02:38.535Z,4.67
2018-09-19T01:05:07.985Z,4.80
2018-09-19T01:07:37.729Z,4.43
2018-09-19T01:10:06.916Z,4.07
2018-09-19T01:12:35.629Z,4.03
2018-09-19T01:15:04.656Z,4.00
2018-09-19T01:17:33.544Z,4.63
2018-09-19T01:20:03.188Z,3.90
2018-09-19T01:22:32.736Z,3.43
2018-09-19T01:25:01.403Z,4.10
2018-09-19T01:27:30.828Z,4.23
2018-09-19T01:29:59.940Z,4.67
2018-09-19T01:32:28.487Z,4.63
2018-09-19T01:34:57.400Z,4.63
2018-09-19T01:37:26.879Z,4.40
2018-09-19T01:39:55.471Z,4.20
2018-09-19T01:42:24.586Z,5.20
2018-09-19T01:44:54.035Z,4.50
2018-09-19T01:47:23.289Z,4.33
2018-09-19T01:49:53.865Z,4.30
2018-09-19T01:52:22.970Z,4.60
2018-09-19T01:54:51.513Z,4.83
2018-09-19T01:57:20.769Z,3.80
2018-09-19T01:59:50.494Z,4.70
2018-09-19T02:02:19.420Z,4.53
2018-09-19T02:04:49.586Z,3.77
2018-09-19T02:07:19.091Z,4.03
2018-09-19T02:09:47.782Z,3.93
2018-09-19T02:12:17.334Z,4.60
2018-09-19T02:14:46.563Z,4.33
2018-09-19T02:17:15.165Z,4.80
2018-09-19T02:19:44.849Z,4.63
2018-09-19T02:22:13.952Z,4.37
2018-09-19T02:24:42.844Z,4.30
2018-09-19T02:27:11.907Z,5.00
2018-09-19T02:29:41.128Z,4.33
2018-09-19T02:32:09.776Z,4.70
2018-09-19T02:34:39.055Z,5.03
2018-09-19T02:37:08.572Z,4.47
2018-09-19T02:39:37.199Z,5.10
2018-09-19T02:42:07.185Z,5.63
2018-09-19T02:44:36.316Z,5.33
2018-09-19T02:47:04.897Z,5.03
2018-09-19T02:49:34.544Z,5.80
2018-09-19T02:52:03.934Z,5.23
2018-09-19T02:54:32.476Z,5.83
2018-09-19T02:57:01.533Z,5.67
2018-09-19T02:59:30.789Z,5.10
2018-09-19T03:01:59.367Z,5.40
2018-09-19T03:04:28.600Z,4.97
2018-09-19T03:06:58.348Z,5.20
2018-09-19T03:09:26.927Z,5.53
2018-09-19T03:11:56.155Z,5.20
2018-09-19T03:14:25.328Z,5.03
2018-09-19T03:16:54.544Z,4.80
2018-09-19T03:19:24.892Z,5.40
2018-09-19T03:21:54.351Z,5.00
2018-09-19T03:24:22.867Z,5.30
2018-09-19T03:26:51.976Z,4.93
2018-09-19T03:29:21.289Z,5.70
2018-09-19T03:31:50.025Z,5.20
2018-09-19T03:34:19.132Z,4.50
2018-09-19T03:36:48.232Z,5.10
2018-09-19T03:39:16.738Z,5.07
2018-09-19T03:41:45.737Z,5.27
2018-09-19T03:44:14.632Z,4.93
2018-09-19T03:46:43.728Z,5.93
2018-09-19T03:49:12.575Z,4.67
2018-09-19T03:51:41.774Z,4.50
2018-09-19T03:54:11.400Z,5.40
2018-09-19T03:56:40.367Z,5.83
2018-09-19T03:59:09.819Z,5.37
2018-09-19T04:01:38.366Z,6.23
2018-09-19T04:04:06.916Z,5.83
2018-09-19T04:06:36.231Z,5.03
2018-09-19T04:09:08.761Z,5.40
2018-09-19T04:11:38.044Z,5.00
2018-09-19T04:14:07.679Z,5.67
2018-09-19T04:16:36.702Z,5.77
2018-09-19T04:19:06.368Z,5.63
2018-09-19T04:21:35.358Z,5.73
2018-09-19T04:24:04.771Z,6.07
2018-09-19T04:26:33.873Z,6.17
2018-09-19T04:29:02.594Z,6.50
2018-09-19T04:31:31.625Z,6.10
2018-09-19T04:34:00.911Z,5.97
2018-09-19T04:36:29.559Z,5.83
2018-09-19T04:38:59.227Z,6.03
2018-09-19T04:41:28.451Z,6.00
2018-09-19T04:43:57.052Z,6.50
2018-09-19T04:46:26.389Z,6.67
2018-09-19T04:48:55.581Z,7.13
2018-09-19T04:51:24.288Z,6.60
2018-09-19T04:53:52.846Z,7.50
2018-09-19T04:56:23.347Z,7.43
2018-09-19T04:58:51.932Z,6.63
2018-09-19T05:01:21.363Z,7.30
2018-09-19T05:03:50.723Z,7.00
2018-09-19T05:06:19.412Z,7.50
2018-09-19T05:08:47.954Z,8.00
2018-09-19T05:11:17.400Z,8.00
2018-09-19T05:13:46.692Z,8.63
2018-09-19T05:16:15.330Z,8.03
2018-09-19T05:18:46.043Z,8.47
2018-09-19T05:21:14.964Z,8.20
2018-09-19T05:23:43.916Z,8.90
2018-09-19T05:26:13.368Z,8.03
2018-09-19T05:28:42.416Z,8.17
2018-09-19T05:31:11.075Z,8.33
2018-09-19T05:33:40.222Z,9.07
2018-09-19T05:36:09.406Z,8.40
2018-09-19T05:38:38.173Z,8.30
2018-09-19T05:41:07.519Z,8.53
2018-09-19T05:43:36.672Z,8.83
2018-09-19T05:46:05.859Z,9.27
2018-09-19T05:48:34.965Z,9.27
2018-09-19T05:51:04.728Z,9.03
2018-09-19T05:53:33.319Z,8.80
2018-09-19T05:56:02.283Z,8.97
2018-09-19T05:58:32.223Z,9.67
2018-09-19T06:01:00.809Z,9.03
2018-09-19T06:03:30.345Z,9.13
2018-09-19T06:05:59.215Z,9.23
2018-09-19T06:08:27.717Z,9.23
2018-09-19T06:10:56.885Z,9.10
2018-09-19T06:13:26.046Z,9.43
2018-09-19T06:15:54.649Z,9.20
2018-09-19T06:18:23.144Z,8.93
2018-09-19T06:20:52.802Z,10.13
2018-09-19T06:23:21.811Z,10.10
2018-09-19T06:25:50.894Z,9.13
2018-09-19T06:28:20.584Z,10.10
2018-09-19T06:30:49.364Z,10.17
2018-09-19T06:33:18.752Z,9.43
2018-09-19T06:35:47.739Z,10.43
2018-09-19T06:38:16.879Z,9.30
2018-09-19T06:40:45.651Z,9.70
2018-09-19T06:43:14.760Z,10.20
2018-09-19T06:45:44.186Z,9.80
2018-09-19T06:48:13.257Z,9.27
2018-09-19T06:50:42.217Z,9.33
2018-09-19T06:53:10.936Z,9.37
2018-09-19T06:55:40.616Z,9.63
2018-09-19T06:58:09.930Z,10.93
2018-09-19T07:00:39.143Z,9.57
2018-09-19T07:03:08.004Z,9.37
2018-09-19T07:05:37.395Z,9.37
2018-09-19T07:08:06.330Z,8.87
2018-09-19T07:10:35.564Z,8.87
2018-09-19T07:13:04.683Z,7.93
2018-09-19T07:15:33.956Z,9.10
2018-09-19T07:18:03.142Z,9.20
2018-09-19T07:20:32.375Z,8.37
2018-09-19T07:23:01.656Z,8.07
2018-09-19T07:25:30.263Z,8.50
2018-09-19T07:27:59.694Z,7.20
2018-09-19T07:30:29.138Z,8.10
2018-09-19T07:32:58.125Z,7.73
2018-09-19T07:35:27.354Z,8.47
2018-09-19T07:37:56.881Z,8.57
2018-09-19T07:40:26.281Z,8.60
2018-09-19T07:42:55.455Z,8.40
2018-09-19T07:45:24.149Z,7.10
2018-09-19T07:47:53.136Z,8.33
2018-09-19T07:50:22.321Z,7.80
2018-09-19T07:52:52.170Z,7.93
2018-09-19T07:55:21.427Z,7.97
2018-09-19T07:57:50.465Z,9.00
2018-09-19T08:00:19.122Z,7.70
2018-09-19T08:02:48.190Z,8.20
2018-09-19T08:05:17.508Z,7.37
2018-09-19T08:07:46.171Z,6.77
2018-09-19T08:10:15.996Z,7.40
2018-09-19T08:12:45.379Z,7.53
2018-09-19T08:15:13.924Z,6.53
2018-09-19T08:17:42.669Z,7.77
2018-09-19T08:20:11.878Z,7.63
2018-09-19T08:22:40.615Z,7.97
2018-09-19T08:25:09.728Z,7.70
2018-09-19T08:27:39.416Z,7.90
2018-09-19T08:30:08.024Z,7.17
2018-09-19T08:32:38.030Z,7.33
2018-09-19T08:35:07.708Z,7.17
2018-09-19T08:37:36.290Z,7.43
2018-09-19T08:40:07.470Z,6.37
2018-09-19T08:42:36.012Z,6.67
2018-09-19T08:45:04.703Z,7.17
2018-09-19T08:47:33.764Z,6.47
2018-09-19T08:50:04.440Z,6.73
2018-09-19T08:52:34.049Z,5.73
2018-09-19T08:55:04.925Z,5.67
2018-09-19T08:57:34.203Z,6.47
2018-09-19T09:00:03.624Z,5.60
2018-09-19T09:02:32.170Z,5.53
2018-09-19T09:05:01.883Z,5.47
2018-09-19T09:07:30.980Z,5.07
2018-09-19T09:09:59.523Z,5.63
2018-09-19T09:12:28.879Z,5.13
2018-09-19T09:14:57.845Z,5.10
2018-09-19T09:17:26.592Z,6.30
2018-09-19T09:19:56.316Z,4.80
2018-09-19T09:22:25.778Z,5.30
2018-09-19T09:24:54.340Z,4.57
2018-09-19T09:27:23.410Z,5.13
2018-09-19T09:29:52.802Z,4.40
2018-09-19T09:32:22.123Z,4.63
2018-09-19T09:34:51.294Z,4.27
2018-09-19T09:37:20.428Z,4.50
2018-09-19T09:39:49.466Z,4.73
2018-09-19T09:42:18.041Z,4.60
2018-09-19T09:44:46.988Z,4.83
2018-09-19T09:47:16.422Z,3.87
2018-09-19T09:49:45.032Z,3.53
2018-09-19T09:52:13.859Z,3.83
2018-09-19T09:54:42.898Z,4.47
2018-09-19T09:57:12.135Z,4.03
2018-09-19T09:59:41.224Z,4.17
2018-09-19T10:02:10.536Z,4.00
2018-09-19T10:04:39.581Z,4.10
2018-09-19T10:07:08.434Z,4.47
2018-09-19T10:09:37.816Z,4.80
2018-09-19T10:12:07.205Z,4.13
2018-09-19T10:14:36.309Z,4.27
2018-09-19T10:17:06.298Z,4.70
2018-09-19T10:19:35.138Z,4.43
2018-09-19T10:22:04.549Z,4.10
2018-09-19T10:24:33.965Z,4.47
2018-09-19T10:27:03.389Z,4.53
2018-09-19T10:29:32.296Z,4.30
2018-09-19T10:32:01.163Z,4.80
2018-09-19T10:34:30.383Z,5.10
2018-09-19T10:36:58.951Z,4.40
2018-09-19T10:39:28.398Z,4.10
2018-09-19T10:41:57.641Z,3.90
2018-09-19T10:44:26.163Z,4.20
2018-09-19T10:46:55.674Z,4.30
2018-09-19T10:49:25.036Z,4.97
2018-09-19T10:51:53.630Z,4.53
2018-09-19T10:54:23.144Z,3.93
2018-09-19T10:56:52.483Z,4.23
2018-09-19T10:59:21.132Z,3.77
2018-09-19T11:01:50.144Z,4.00
2018-09-19T11:04:20.734Z,3.70
2018-09-19T11:06:49.426Z,3.87
2018-09-19T11:09:18.886Z,3.67
2018-09-19T11:11:48.142Z,4.03
2018-09-19T11:14:17.808Z,4.60
2018-09-19T11:16:46.809Z,3.63
2018-09-19T11:19:16.190Z,3.90
2018-09-19T11:21:45.457Z,3.77
2018-09-19T11:24:15.053Z,3.67
2018-09-19T11:26:44.511Z,3.67
2018-09-19T11:29:13.238Z,3.83
2018-09-19T11:31:42.510Z,3.23
2018-09-19T11:34:11.784Z,4.20
2018-09-19T11:36:40.265Z,3.97
2018-09-19T11:39:11.712Z,3.43
2018-09-19T11:41:41.205Z,4.07
2018-09-19T11:44:11.123Z,4.13
2018-09-19T11:46:40.296Z,3.27
2018-09-19T11:49:09.033Z,4.00
2018-09-19T11:51:38.057Z,3.50
2018-09-19T11:54:08.137Z,4.37
2018-09-19T11:56:37.696Z,4.10
2018-09-19T11:59:06.771Z,3.37
2018-09-19T12:01:36.400Z,3.50
2018-09-19T12:04:06.336Z,3.30
2018-09-19T12:06:35.438Z,4.00
2018-09-19T12:09:06.217Z,4.57
2018-09-19T12:11:35.798Z,3.87
2018-09-19T12:14:05.857Z,4.20
2018-09-19T12:16:34.887Z,4.00
2018-09-19T12:19:04.554Z,4.23
2018-09-19T12:21:33.376Z,3.90
2018-09-19T12:24:01.997Z,3.77
2018-09-19T12:26:31.103Z,3.87
2018-09-19T12:29:01.247Z,3.93
2018-09-19T12:31:29.823Z,3.60
2018-09-19T12:33:59.030Z,3.53
2018-09-19T12:36:28.598Z,3.23
2018-09-19T12:38:57.554Z,4.33
2018-09-19T12:41:26.865Z,3.80
2018-09-19T12:43:56.398Z,4.53
2018-09-19T12:46:24.922Z,3.03
2018-09-19T12:48:54.684Z,4.10
2018-09-19T12:51:23.793Z,3.40
2018-09-19T12:53:52.296Z,3.30
2018-09-19T12:56:21.283Z,3.80
2018-09-19T12:58:51.011Z,3.60
2018-09-19T13:01:19.932Z,3.63
2018-09-19T13:03:48.956Z,3.90
2018-09-19T13:06:18.176Z,3.43
2018-09-19T13:08:47.661Z,3.70
2018-09-19T13:11:16.280Z,3.70
2018-09-19T13:13:45.740Z,3.23
2018-09-19T13:16:18.545Z,3.40
2018-09-19T13:18:48.014Z,3.13
2018-09-19T13:21:16.944Z,4.00
2018-09-19T13:23:47.934Z,3.50
2018-09-19T13:26:16.750Z,3.77
2018-09-19T13:28:45.876Z,3.40
2018-09-19T13:31:16.150Z,3.47
2018-09-19T13:33:45.122Z,3.90
2018-09-19T13:36:14.009Z,4.10
2018-09-19T13:38:43.159Z,3.23
2018-09-19T13:41:12.406Z,3.87
2018-09-19T13:43:41.079Z,3.70
2018-09-19T13:46:10.821Z,3.73
2018-09-19T13:48:43.880Z,3.53
2018-09-19T13:51:17.298Z,3.73
2018-09-19T13:53:46.791Z,3.17
2018-09-19T13:56:15.823Z,3.50
2018-09-19T13:58:45.442Z,3.90
2018-09-19T14:01:15.927Z,3.40
2018-09-19T14:03:46.377Z,3.50
2018-09-19T14:06:15.756Z,3.73
2018-09-19T14:08:45.072Z,3.57
2018-09-19T14:11:14.988Z,4.00
2018-09-19T14:13:43.821Z,3.83
2018-09-19T14:16:12.941Z,3.80
2018-09-19T14:18:43.503Z,3.60
2018-09-19T14:21:12.039Z,3.97
2018-09-19T14:23:42.521Z,3.87
2018-09-19T14:26:12.170Z,3.70
2018-09-19T14:28:40.793Z,3.77
2018-09-19T14:31:10.376Z,3.90
2018-09-19T14:33:40.337Z,3.73
2018-09-19T14:36:08.895Z,3.63
2018-09-19T14:38:38.365Z,3.80
2018-09-19T14:41:07.794Z,3.50
2018-09-19T14:43:36.412Z,3.33
2018-09-19T14:46:06.522Z,3.93
2018-09-19T14:48:37.881Z,3.57
2018-09-19T14:51:07.197Z,3.20
2018-09-19T14:53:36.254Z,3.20
2018-09-19T14:56:07.324Z,3.60
2018-09-19T14:58:36.871Z,4.10
2018-09-19T15:01:06.539Z,3.53
2018-09-19T15:03:36.028Z,3.17
2018-09-19T15:06:05.178Z,3.47
2018-09-19T15:08:34.236Z,3.47
2018-09-19T15:11:02.988Z,3.07
2018-09-19T15:13:33.020Z,4.67
2018-09-19T15:16:02.158Z,3.30
2018-09-19T15:20:59.000Z,3.73
2018-09-19T15:23:29.005Z,3.13
2018-09-19T15:26:02.860Z,3.93
2018-09-19T15:28:34.187Z,3.57
2018-09-19T15:33:30.157Z,3.47
2018-09-19T15:36:00.290Z,3.80
2018-09-19T15:38:29.500Z,3.60
2018-09-19T15:40:58.511Z,3.23
2018-09-19T15:43:27.081Z,4.17
2018-09-19T15:45:56.924Z,3.13
2018-09-19T15:48:26.247Z,3.20
2018-09-19T15:50:54.878Z,3.03
2018-09-19T15:53:24.382Z,3.10
2018-09-19T15:55:53.416Z,2.90
2018-09-19T15:58:22.470Z,3.53
2018-09-19T16:00:51.172Z,3.40
2018-09-19T16:03:20.006Z,4.10
2018-09-19T16:05:49.378Z,3.83
2018-09-19T16:08:18.612Z,2.97
2018-09-19T16:10:47.983Z,3.30
2018-09-19T16:13:16.522Z,3.30
2018-09-19T16:15:46.238Z,3.10
2018-09-19T16:18:15.406Z,3.10
2018-09-19T16:20:44.848Z,3.90
2018-09-19T16:23:13.529Z,3.37
2018-09-19T16:25:42.172Z,3.20
2018-09-19T16:28:11.917Z,3.10
2018-09-19T16:30:41.288Z,3.17
2018-09-19T16:33:10.134Z,3.33
2018-09-19T16:35:38.709Z,3.50
2018-09-19T16:38:07.574Z,3.03
2018-09-19T16:40:39.633Z,3.60
2018-09-19T16:43:08.665Z,3.30
2018-09-19T16:45:37.322Z,3.37
2018-09-19T16:48:06.881Z,3.67
2018-09-19T16:50:36.292Z,3.10
2018-09-19T16:53:05.839Z,3.70
2018-09-19T16:55:34.449Z,3.20
2018-09-19T16:58:03.806Z,3.90
2018-09-19T17:00:32.878Z,3.23
2018-09-19T17:03:02.211Z,3.33
2018-09-19T17:05:32.210Z,3.70
2018-09-19T17:08:02.218Z,3.50
2018-09-19T17:10:31.833Z,3.80
2018-09-19T17:13:00.998Z,3.27
2018-09-19T17:15:29.693Z,3.37
2018-09-19T17:17:59.802Z,3.47
2018-09-19T17:20:28.893Z,3.60
2018-09-19T17:22:58.333Z,3.33
2018-09-19T17:25:27.471Z,3.30
2018-09-19T17:27:56.040Z,3.30
2018-09-19T17:30:25.458Z,4.43
2018-09-19T17:32:54.638Z,3.27
2018-09-19T17:35:24.883Z,3.00
2018-09-19T17:37:54.499Z,3.00
2018-09-19T17:40:24.170Z,3.00
2018-09-19T17:42:53.754Z,3.07
2018-09-19T17:45:22.412Z,3.10
2018-09-19T17:47:51.113Z,2.93
2018-09-19T17:50:20.409Z,3.10
2018-09-19T17:52:49.741Z,2.83
2018-09-19T17:55:19.129Z,3.67
2018-09-19T17:57:48.342Z,3.47
2018-09-19T18:00:17.149Z,3.30
2018-09-19T18:02:45.891Z,2.77
2018-09-19T18:05:14.939Z,3.10
2018-09-19T18:07:44.310Z,3.60
2018-09-19T18:10:13.480Z,3.03
2018-09-19T18:12:42.646Z,3.20
2018-09-19T18:15:11.412Z,2.93
2018-09-19T18:17:40.403Z,3.20
2018-09-19T18:20:09.724Z,3.10
2018-09-19T18:22:38.842Z,3.40
2018-09-19T18:25:08.529Z,3.37
2018-09-19T18:27:37.986Z,3.93
2018-09-19T18:30:07.670Z,2.90
2018-09-19T18:32:36.994Z,3.73
2018-09-19T18:35:06.590Z,3.20
2018-09-19T18:37:35.261Z,3.00
2018-09-19T18:40:04.506Z,3.20
2018-09-19T18:42:34.063Z,3.60
2018-09-19T18:45:03.570Z,3.37
2018-09-19T18:47:33.128Z,4.13
2018-09-19T18:50:02.564Z,4.20
2018-09-19T18:52:31.193Z,3.90
2018-09-19T18:54:59.997Z,4.07
2018-09-19T18:57:29.125Z,4.10
2018-09-19T18:59:58.612Z,3.70
2018-09-19T19:02:27.941Z,3.53
2018-09-19T19:04:57.597Z,3.00
2018-09-19T19:07:26.484Z,3.43
2018-09-19T19:09:55.148Z,3.67
2018-09-19T19:12:24.162Z,4.90
2018-09-19T19:14:53.627Z,3.67
2018-09-19T19:17:22.885Z,4.07
2018-09-19T19:19:52.260Z,3.80
2018-09-19T19:22:21.034Z,4.03
2018-09-19T19:24:50.390Z,4.83
2018-09-19T19:27:19.147Z,3.80
2018-09-19T19:29:47.729Z,3.77
2018-09-19T19:32:21.229Z,3.97
2018-09-19T19:34:50.775Z,4.30
2018-09-19T19:37:23.102Z,3.93
2018-09-19T19:39:53.789Z,3.63
2018-09-19T19:42:23.316Z,3.80
2018-09-19T19:44:52.895Z,4.33
2018-09-19T19:47:21.780Z,3.77
2018-09-19T19:49:51.044Z,3.60
2018-09-19T19:52:20.105Z,3.53
2018-09-19T19:54:49.604Z,3.90
2018-09-19T19:57:19.112Z,3.80
2018-09-19T19:59:47.992Z,3.70
2018-09-19T20:02:17.425Z,3.83
2018-09-19T20:04:46.822Z,3.60
2018-09-19T20:07:16.216Z,3.80
2018-09-19T20:09:45.133Z,3.43
2018-09-19T20:12:13.786Z,3.60
2018-09-19T20:14:42.400Z,3.63
2018-09-19T20:17:11.199Z,3.30
2018-09-19T20:19:40.274Z,3.23
2018-09-19T20:22:11.031Z,4.20
2018-09-19T20:24:40.767Z,3.63
2018-09-19T20:27:09.803Z,4.03
2018-09-19T20:29:38.393Z,3.80
2018-09-19T20:32:07.835Z,3.60
2018-09-19T20:34:37.172Z,3.23
2018-09-19T20:37:07.097Z,3.30
2018-09-19T20:39:35.815Z,3.50
2018-09-19T20:42:04.580Z,4.00
2018-09-19T20:44:34.070Z,3.83
2018-09-19T20:47:04.185Z,3.40
2018-09-19T20:49:33.468Z,4.00
2018-09-19T20:52:03.284Z,3.83
2018-09-19T20:54:32.613Z,3.70
2018-09-19T20:57:01.988Z,4.17
2018-09-19T20:59:31.556Z,4.10
2018-09-19T21:02:00.267Z,3.97
2018-09-19T21:04:29.986Z,4.27
2018-09-19T21:06:59.026Z,3.73
2018-09-19T21:09:29.105Z,3.53
2018-09-19T21:11:58.677Z,3.83
2018-09-19T21:14:28.395Z,3.60
2018-09-19T21:16:57.631Z,4.07
2018-09-19T21:19:26.889Z,3.90
2018-09-19T21:21:56.500Z,3.23
2018-09-19T21:24:25.028Z,3.80
2018-09-19T21:26:53.757Z,3.70
2018-09-19T21:29:23.446Z,3.90
2018-09-19T21:31:52.923Z,3.83
2018-09-19T21:34:22.732Z,3.80
2018-09-19T21:36:52.110Z,3.80
2018-09-19T21:39:22.076Z,4.40
2018-09-19T21:41:51.530Z,3.90
2018-09-19T21:44:21.321Z,4.07
2018-09-19T21:46:50.721Z,4.23
2018-09-19T21:49:19.363Z,3.97
2018-09-19T21:51:48.285Z,3.70
2018-09-19T21:54:18.332Z,3.97
2018-09-19T21:56:47.767Z,3.97
2018-09-19T21:59:17.537Z,4.20
2018-09-19T22:01:46.168Z,3.80
2018-09-19T22:04:14.922Z,4.23
2018-09-19T22:06:44.682Z,4.03
2018-09-19T22:09:14.016Z,4.10
2018-09-19T22:11:43.461Z,3.97
2018-09-19T22:14:12.207Z,4.30
2018-09-19T22:16:40.877Z,4.37
2018-09-19T22:19:10.524Z,4.73
2018-09-19T22:21:39.907Z,4.30
2018-09-19T22:24:10.025Z,4.37
2018-09-19T22:26:38.786Z,4.53
2018-09-19T22:29:08.379Z,4.47
2018-09-19T22:31:37.538Z,4.97
2018-09-19T22:34:06.665Z,4.80
2018-09-19T22:36:36.216Z,4.40
2018-09-19T22:39:07.320Z,3.90
2018-09-19T22:41:36.590Z,4.37
2018-09-19T22:44:06.942Z,4.77
2018-09-19T22:46:35.766Z,4.30
2018-09-19T22:49:04.367Z,4.33
2018-09-19T22:51:33.061Z,4.17
2018-09-19T22:54:01.729Z,4.17
2018-09-19T22:56:30.783Z,5.00
2018-09-19T22:59:01.471Z,4.63
2018-09-19T23:01:33.565Z,4.77
2018-09-19T23:04:03.273Z,4.67
2018-09-19T23:06:32.539Z,4.77
2018-09-19T23:09:02.221Z,4.43
2018-09-19T23:11:31.535Z,4.70
2018-09-19T23:14:00.515Z,4.47
2018-09-19T23:16:29.911Z,4.50
2018-09-19T23:18:59.067Z,4.37
2018-09-19T23:21:27.628Z,4.83
2018-09-19T23:23:56.516Z,5.07
2018-09-19T23:26:25.446Z,5.43
2018-09-19T23:28:54.794Z,4.83
2018-09-19T23:31:23.835Z,5.10
2018-09-19T23:33:53.266Z,5.10
2018-09-19T23:36:22.616Z,5.03
2018-09-19T23:38:51.342Z,4.87
2018-09-19T23:41:20.119Z,5.43
2018-09-19T23:43:49.643Z,5.73
2018-09-19T23:46:18.702Z,4.60
2018-09-19T23:48:47.953Z,4.60
2018-09-19T23:51:17.433Z,5.13
2018-09-19T23:53:46.511Z,5.20
2018-09-19T23:56:15.095Z,5.33
2018-09-19T23:58:44.435Z,5.83
